Churchill, Idaho
Current Conditions -  °F | °C
As of 5:53 AM on Saturday 25 Oct 2014 (Local Time) from KBYI Reporting Station
Clear Clear  
Wind Chill: 38°   Ceiling: Unl
Heat Index: 42°   Visibility: 10mi
Dew Point: 33°   Wind: 7mph
Humidity: 70%   Direction: 110°ESE
Pressure: 29.96"   Gusts: NA
Location:  42.2256°N, 114.022°W
Report Text: KBYI 251153Z AUTO 11006KT 10SM CLR 06/01 A2996 RMK AO2 SLP119 T00560006 10128 20050 56008
Loading
Personal Weather Stations






























Interactive Weather Map
Tropical Storm Tracking
New forecast layout! Learn more

10-Day Weather Forecast

Advertisements
Track Severe Weather on mobile